createdAt,value
2022-10-19T00:02:42.589Z,99
2022-10-19T00:12:43.390Z,100
2022-10-19T00:22:44.096Z,100
2022-10-19T00:32:45.166Z,100
2022-10-19T00:42:45.809Z,100
2022-10-19T00:52:46.615Z,100
2022-10-19T01:02:47.553Z,100
2022-10-19T01:12:48.164Z,100
2022-10-19T01:22:48.387Z,100
2022-10-19T01:32:48.890Z,100
2022-10-19T01:42:49.106Z,100
2022-10-19T01:52:49.631Z,100
2022-10-19T02:02:49.778Z,100
2022-10-19T02:22:51.152Z,100
2022-10-19T02:32:52.240Z,100
2022-10-19T02:42:53.310Z,100
2022-10-19T02:52:54.378Z,100
2022-10-19T03:02:54.864Z,100
2022-10-19T03:12:55.947Z,100
2022-10-19T03:32:56.545Z,100
2022-10-19T03:52:57.541Z,100
2022-10-19T04:02:58.091Z,100
2022-10-19T04:12:58.696Z,100
2022-10-19T04:22:59.525Z,100
2022-10-19T04:33:00.369Z,100
2022-10-19T04:43:00.676Z,100
2022-10-19T04:53:00.945Z,100
2022-10-19T05:03:01.316Z,100
2022-10-19T05:13:02.196Z,100
2022-10-19T05:23:04.685Z,100
2022-10-19T05:33:03.560Z,100
2022-10-19T05:43:04.068Z,100
2022-10-19T05:53:04.620Z,100
2022-10-19T06:03:05.537Z,100
2022-10-19T06:23:06.796Z,100
2022-10-19T06:43:07.899Z,100
2022-10-19T07:23:09.780Z,100
2022-10-19T07:33:10.245Z,100
2022-10-19T07:53:10.843Z,100
2022-10-19T08:03:43.557Z,100
2022-10-19T08:13:11.781Z,100
2022-10-19T08:23:12.448Z,100
2022-10-19T08:53:14.670Z,100
2022-10-19T09:03:17.636Z,100
2022-10-19T09:13:16.223Z,100
2022-10-19T09:23:16.598Z,100
2022-10-19T09:33:16.976Z,100
2022-10-19T09:43:17.249Z,100
2022-10-19T09:53:18.126Z,100
2022-10-19T10:13:19.748Z,93
2022-10-19T10:23:20.474Z,89
2022-10-19T10:33:27.194Z,86
2022-10-19T10:43:21.054Z,82
2022-10-19T10:53:21.704Z,80
2022-10-19T11:03:22.710Z,79
2022-10-19T11:13:23.316Z,78
2022-10-19T11:23:24.299Z,77
2022-10-19T11:33:25.277Z,77
2022-10-19T11:43:26.955Z,74
2022-10-19T11:53:26.728Z,76
2022-10-19T12:03:27.514Z,75
2022-10-19T12:13:27.659Z,72
2022-10-19T12:23:28.187Z,71
2022-10-19T12:33:28.486Z,69
2022-10-19T12:53:29.404Z,69
2022-10-19T13:03:29.978Z,68
2022-10-19T13:13:30.617Z,67
2022-10-19T13:23:31.410Z,66
2022-10-19T13:33:31.708Z,66
2022-10-19T13:43:32.214Z,66
2022-10-19T13:53:32.270Z,68
2022-10-19T14:03:33.131Z,70
2022-10-19T14:13:33.779Z,71
2022-10-19T14:23:33.955Z,70
2022-10-19T14:33:34.419Z,70
2022-10-19T14:53:35.392Z,71
2022-10-19T15:03:38.059Z,73
2022-10-19T15:13:36.481Z,74
2022-10-19T15:23:36.826Z,75
2022-10-19T15:33:37.857Z,76
2022-10-19T15:43:38.639Z,76
2022-10-19T15:53:39.294Z,77
2022-10-19T16:03:39.399Z,77
2022-10-19T16:13:40.395Z,79
2022-10-19T16:23:41.998Z,80
2022-10-19T16:33:41.644Z,81
2022-10-19T16:43:42.237Z,81
2022-10-19T16:53:43.133Z,82
2022-10-19T17:03:43.624Z,82
2022-10-19T17:13:44.044Z,83
2022-10-19T17:23:44.746Z,83
2022-10-19T17:33:44.880Z,83
2022-10-19T17:43:45.747Z,83
2022-10-19T17:53:46.691Z,83
2022-10-19T18:03:46.872Z,84
2022-10-19T18:13:47.274Z,84
2022-10-19T18:23:47.415Z,84
2022-10-19T18:33:47.600Z,85
2022-10-19T18:43:47.846Z,85
2022-10-19T18:53:48.582Z,86
2022-10-19T19:03:49.010Z,86
2022-10-19T19:13:49.867Z,87
2022-10-19T19:23:50.470Z,87
2022-10-19T19:33:50.860Z,88
2022-10-19T19:43:51.769Z,88
2022-10-19T19:53:52.395Z,88
2022-10-19T20:03:52.688Z,89
2022-10-19T20:13:53.366Z,89
2022-10-19T20:23:53.468Z,90
2022-10-19T20:33:53.756Z,90
2022-10-19T20:43:54.673Z,90
2022-10-19T20:53:54.889Z,91
2022-10-19T21:03:55.498Z,92
2022-10-19T21:13:56.032Z,92
2022-10-19T21:23:56.667Z,92
2022-10-19T21:33:57.178Z,92
2022-10-19T21:43:57.677Z,93
2022-10-19T21:53:58.390Z,93
2022-10-19T22:03:59.051Z,93
2022-10-19T22:13:59.733Z,94
2022-10-19T22:24:00.562Z,94
2022-10-19T22:34:01.197Z,94
2022-10-19T22:44:01.524Z,95
2022-10-19T22:54:02.469Z,95
2022-10-19T23:04:02.720Z,95
2022-10-19T23:14:03.570Z,96
2022-10-19T23:24:03.986Z,96
2022-10-19T23:34:04.223Z,96
2022-10-19T23:34:26.196Z,96
2022-10-19T23:44:10.753Z,97
2022-10-19T23:54:11.470Z,97
